sensor_id;sensor_type;location;lat;lon;timestamp;P1;durP1;ratioP1;P2;durP2;ratioP2
12768;SDS011;6448;48.916;8.990;2022-08-03T00:00:19;1.20;;;1.10;;
12768;SDS011;6448;48.916;8.990;2022-08-03T00:01:24;1.25;;;1.15;;
12768;SDS011;6448;48.916;8.990;2022-08-03T00:02:26;1.17;;;1.10;;
12768;SDS011;6448;48.916;8.990;2022-08-03T00:03:27;1.30;;;1.20;;
12768;SDS011;6448;48.916;8.990;2022-08-03T00:04:29;1.40;;;1.30;;
12768;SDS011;6448;48.916;8.990;2022-08-03T00:05:30;1.30;;;1.20;;
12768;SDS011;6448;48.916;8.990;2022-08-03T00:06:32;1.30;;;1.20;;
12768;SDS011;6448;48.916;8.990;2022-08-03T00:07:33;1.20;;;1.10;;
12768;SDS011;6448;48.916;8.990;2022-08-03T00:08:40;1.90;;;1.33;;
12768;SDS011;6448;48.916;8.990;2022-08-03T00:09:53;1.40;;;1.20;;
12768;SDS011;6448;48.916;8.990;2022-08-03T00:10:54;1.35;;;1.25;;
12768;SDS011;6448;48.916;8.990;2022-08-03T00:11:55;1.15;;;1.10;;
12768;SDS011;6448;48.916;8.990;2022-08-03T00:12:57;1.33;;;1.23;;
12768;SDS011;6448;48.916;8.990;2022-08-03T00:13:58;1.30;;;1.20;;
12768;SDS011;6448;48.916;8.990;2022-08-03T00:15:00;1.50;;;1.30;;
12768;SDS011;6448;48.916;8.990;2022-08-03T00:16:01;1.30;;;1.20;;
12768;SDS011;6448;48.916;8.990;2022-08-03T00:17:04;1.27;;;1.17;;
12768;SDS011;6448;48.916;8.990;2022-08-03T00:18:05;1.13;;;1.10;;
12768;SDS011;6448;48.916;8.990;2022-08-03T00:19:07;1.20;;;1.10;;
12768;SDS011;6448;48.916;8.990;2022-08-03T00:20:08;1.30;;;1.20;;
12768;SDS011;6448;48.916;8.990;2022-08-03T00:21:10;1.30;;;1.20;;
12768;SDS011;6448;48.916;8.990;2022-08-03T00:22:11;1.10;;;1.10;;
12768;SDS011;6448;48.916;8.990;2022-08-03T00:23:13;1.30;;;1.20;;
12768;SDS011;6448;48.916;8.990;2022-08-03T00:24:15;1.30;;;1.20;;
12768;SDS011;6448;48.916;8.990;2022-08-03T00:25:15;1.27;;;1.17;;
12768;SDS011;6448;48.916;8.990;2022-08-03T00:26:18;1.40;;;1.13;;
12768;SDS011;6448;48.916;8.990;2022-08-03T00:27:19;1.20;;;1.20;;
12768;SDS011;6448;48.916;8.990;2022-08-03T00:28:20;1.23;;;1.10;;
12768;SDS011;6448;48.916;8.990;2022-08-03T00:29:21;1.08;;;1.00;;
12768;SDS011;6448;48.916;8.990;2022-08-03T00:30:23;1.35;;;1.25;;
12768;SDS011;6448;48.916;8.990;2022-08-03T00:31:24;1.88;;;1.10;;
12768;SDS011;6448;48.916;8.990;2022-08-03T00:32:27;1.30;;;1.20;;
12768;SDS011;6448;48.916;8.990;2022-08-03T00:33:28;1.27;;;1.17;;
12768;SDS011;6448;48.916;8.990;2022-08-03T00:34:29;1.40;;;1.30;;
12768;SDS011;6448;48.916;8.990;2022-08-03T00:35:30;1.30;;;1.20;;
12768;SDS011;6448;48.916;8.990;2022-08-03T00:36:32;1.35;;;1.25;;
12768;SDS011;6448;48.916;8.990;2022-08-03T00:37:33;1.30;;;1.20;;
12768;SDS011;6448;48.916;8.990;2022-08-03T00:38:35;1.33;;;1.23;;
12768;SDS011;6448;48.916;8.990;2022-08-03T00:39:36;1.35;;;1.23;;
12768;SDS011;6448;48.916;8.990;2022-08-03T00:40:37;1.30;;;1.20;;
12768;SDS011;6448;48.916;8.990;2022-08-03T00:41:38;1.20;;;1.10;;
12768;SDS011;6448;48.916;8.990;2022-08-03T00:42:47;1.10;;;1.10;;
12768;SDS011;6448;48.916;8.990;2022-08-03T00:43:49;1.30;;;1.20;;
12768;SDS011;6448;48.916;8.990;2022-08-03T00:44:51;1.30;;;1.20;;
12768;SDS011;6448;48.916;8.990;2022-08-03T00:45:52;1.10;;;1.10;;
12768;SDS011;6448;48.916;8.990;2022-08-03T00:46:54;1.20;;;1.20;;
12768;SDS011;6448;48.916;8.990;2022-08-03T00:47:57;1.30;;;1.20;;
12768;SDS011;6448;48.916;8.990;2022-08-03T00:48:59;1.35;;;1.25;;
12768;SDS011;6448;48.916;8.990;2022-08-03T00:50:00;1.30;;;1.20;;
12768;SDS011;6448;48.916;8.990;2022-08-03T00:51:03;1.20;;;1.10;;
12768;SDS011;6448;48.916;8.990;2022-08-03T00:52:04;1.02;;;1.02;;
12768;SDS011;6448;48.916;8.990;2022-08-03T00:53:08;1.17;;;1.10;;
12768;SDS011;6448;48.916;8.990;2022-08-03T00:54:11;1.30;;;1.20;;
12768;SDS011;6448;48.916;8.990;2022-08-03T00:55:13;1.52;;;1.27;;
12768;SDS011;6448;48.916;8.990;2022-08-03T00:56:15;1.25;;;1.15;;
12768;SDS011;6448;48.916;8.990;2022-08-03T00:57:17;1.30;;;1.20;;
12768;SDS011;6448;48.916;8.990;2022-08-03T00:58:18;1.40;;;1.30;;
12768;SDS011;6448;48.916;8.990;2022-08-03T00:59:20;1.10;;;1.10;;
12768;SDS011;6448;48.916;8.990;2022-08-03T01:00:22;1.13;;;1.02;;
12768;SDS011;6448;48.916;8.990;2022-08-03T01:01:25;1.10;;;1.10;;
12768;SDS011;6448;48.916;8.990;2022-08-03T01:02:26;1.30;;;1.20;;
12768;SDS011;6448;48.916;8.990;2022-08-03T01:03:30;1.30;;;1.20;;
12768;SDS011;6448;48.916;8.990;2022-08-03T01:04:30;1.30;;;1.20;;
12768;SDS011;6448;48.916;8.990;2022-08-03T01:05:33;1.25;;;1.10;;
12768;SDS011;6448;48.916;8.990;2022-08-03T01:06:40;1.10;;;1.10;;
12768;SDS011;6448;48.916;8.990;2022-08-03T01:07:53;1.10;;;1.10;;
12768;SDS011;6448;48.916;8.990;2022-08-03T01:09:08;1.30;;;1.20;;
12768;SDS011;6448;48.916;8.990;2022-08-03T01:10:17;1.30;;;1.20;;
12768;SDS011;6448;48.916;8.990;2022-08-03T01:11:27;1.30;;;1.20;;
12768;SDS011;6448;48.916;8.990;2022-08-03T01:12:37;1.30;;;1.20;;
12768;SDS011;6448;48.916;8.990;2022-08-03T01:13:44;1.30;;;1.20;;
12768;SDS011;6448;48.916;8.990;2022-08-03T01:14:54;1.20;;;1.20;;
12768;SDS011;6448;48.916;8.990;2022-08-03T01:16:03;1.30;;;1.20;;
12768;SDS011;6448;48.916;8.990;2022-08-03T01:17:10;1.30;;;1.20;;
12768;SDS011;6448;48.916;8.990;2022-08-03T01:18:17;1.50;;;1.40;;
12768;SDS011;6448;48.916;8.990;2022-08-03T01:19:35;1.33;;;1.23;;
12768;SDS011;6448;48.916;8.990;2022-08-03T01:20:47;1.30;;;1.20;;
12768;SDS011;6448;48.916;8.990;2022-08-03T01:21:56;1.10;;;1.10;;
12768;SDS011;6448;48.916;8.990;2022-08-03T01:23:09;1.30;;;1.20;;
12768;SDS011;6448;48.916;8.990;2022-08-03T01:24:30;1.30;;;1.20;;
12768;SDS011;6448;48.916;8.990;2022-08-03T01:25:44;1.25;;;1.10;;
12768;SDS011;6448;48.916;8.990;2022-08-03T01:27:04;1.40;;;1.30;;
12768;SDS011;6448;48.916;8.990;2022-08-03T01:28:15;1.30;;;1.20;;
12768;SDS011;6448;48.916;8.990;2022-08-03T01:29:37;1.00;;;1.00;;
12768;SDS011;6448;48.916;8.990;2022-08-03T01:30:51;1.30;;;1.20;;
12768;SDS011;6448;48.916;8.990;2022-08-03T01:31:56;1.27;;;1.17;;
12768;SDS011;6448;48.916;8.990;2022-08-03T01:33:01;1.30;;;1.20;;
12768;SDS011;6448;48.916;8.990;2022-08-03T01:34:05;1.30;;;1.20;;
12768;SDS011;6448;48.916;8.990;2022-08-03T01:35:10;1.10;;;1.10;;
12768;SDS011;6448;48.916;8.990;2022-08-03T01:36:15;1.30;;;1.20;;
12768;SDS011;6448;48.916;8.990;2022-08-03T01:37:20;1.20;;;1.20;;
12768;SDS011;6448;48.916;8.990;2022-08-03T01:38:28;1.20;;;1.20;;
12768;SDS011;6448;48.916;8.990;2022-08-03T01:39:32;1.35;;;1.25;;
12768;SDS011;6448;48.916;8.990;2022-08-03T01:40:38;1.27;;;1.20;;
12768;SDS011;6448;48.916;8.990;2022-08-03T01:41:41;1.13;;;1.13;;
12768;SDS011;6448;48.916;8.990;2022-08-03T01:42:48;1.40;;;1.20;;
12768;SDS011;6448;48.916;8.990;2022-08-03T01:44:00;1.25;;;1.15;;
12768;SDS011;6448;48.916;8.990;2022-08-03T01:45:27;1.30;;;1.20;;
12768;SDS011;6448;48.916;8.990;2022-08-03T01:46:30;1.23;;;1.13;;
12768;SDS011;6448;48.916;8.990;2022-08-03T01:47:32;1.30;;;1.20;;
12768;SDS011;6448;48.916;8.990;2022-08-03T01:48:37;1.50;;;1.30;;
12768;SDS011;6448;48.916;8.990;2022-08-03T01:49:42;1.10;;;1.10;;
12768;SDS011;6448;48.916;8.990;2022-08-03T01:50:45;1.40;;;1.27;;
12768;SDS011;6448;48.916;8.990;2022-08-03T01:51:47;1.20;;;1.15;;
12768;SDS011;6448;48.916;8.990;2022-08-03T01:52:51;1.30;;;1.20;;
12768;SDS011;6448;48.916;8.990;2022-08-03T01:53:55;1.30;;;1.20;;
12768;SDS011;6448;48.916;8.990;2022-08-03T01:54:58;1.20;;;1.10;;
12768;SDS011;6448;48.916;8.990;2022-08-03T01:56:02;1.30;;;1.20;;
12768;SDS011;6448;48.916;8.990;2022-08-03T01:57:06;1.30;;;1.20;;
12768;SDS011;6448;48.916;8.990;2022-08-03T01:58:08;1.40;;;1.30;;
12768;SDS011;6448;48.916;8.990;2022-08-03T01:59:16;1.10;;;1.00;;
12768;SDS011;6448;48.916;8.990;2022-08-03T02:00:22;1.30;;;1.20;;
12768;SDS011;6448;48.916;8.990;2022-08-03T02:02:00;2.10;;;1.25;;
12768;SDS011;6448;48.916;8.990;2022-08-03T02:03:03;1.52;;;1.30;;
12768;SDS011;6448;48.916;8.990;2022-08-03T02:04:07;1.23;;;1.13;;
12768;SDS011;6448;48.916;8.990;2022-08-03T02:05:12;1.40;;;1.30;;
12768;SDS011;6448;48.916;8.990;2022-08-03T02:06:15;1.20;;;1.20;;
12768;SDS011;6448;48.916;8.990;2022-08-03T02:07:19;1.30;;;1.20;;
12768;SDS011;6448;48.916;8.990;2022-08-03T02:08:23;1.30;;;1.20;;
12768;SDS011;6448;48.916;8.990;2022-08-03T02:09:36;1.90;;;1.23;;
12768;SDS011;6448;48.916;8.990;2022-08-03T02:10:39;1.30;;;1.20;;
12768;SDS011;6448;48.916;8.990;2022-08-03T02:11:45;1.27;;;1.17;;
12768;SDS011;6448;48.916;8.990;2022-08-03T02:12:46;1.40;;;1.30;;
12768;SDS011;6448;48.916;8.990;2022-08-03T02:13:51;1.30;;;1.20;;
12768;SDS011;6448;48.916;8.990;2022-08-03T02:14:54;1.20;;;1.10;;
12768;SDS011;6448;48.916;8.990;2022-08-03T02:17:30;1.30;;;1.20;;
12768;SDS011;6448;48.916;8.990;2022-08-03T02:18:33;1.50;;;1.30;;
12768;SDS011;6448;48.916;8.990;2022-08-03T02:19:38;1.40;;;1.30;;
12768;SDS011;6448;48.916;8.990;2022-08-03T02:20:54;1.40;;;1.30;;
12768;SDS011;6448;48.916;8.990;2022-08-03T02:21:59;1.50;;;1.40;;
12768;SDS011;6448;48.916;8.990;2022-08-03T02:23:07;1.30;;;1.20;;
12768;SDS011;6448;48.916;8.990;2022-08-03T02:24:20;1.40;;;1.30;;
12768;SDS011;6448;48.916;8.990;2022-08-03T02:25:24;1.40;;;1.30;;
12768;SDS011;6448;48.916;8.990;2022-08-03T02:26:26;1.40;;;1.30;;
12768;SDS011;6448;48.916;8.990;2022-08-03T02:27:30;1.45;;;1.35;;
12768;SDS011;6448;48.916;8.990;2022-08-03T02:28:36;1.40;;;1.30;;
12768;SDS011;6448;48.916;8.990;2022-08-03T02:29:41;2.20;;;1.42;;
12768;SDS011;6448;48.916;8.990;2022-08-03T02:30:45;1.60;;;1.30;;
12768;SDS011;6448;48.916;8.990;2022-08-03T02:32:04;1.50;;;1.40;;
12768;SDS011;6448;48.916;8.990;2022-08-03T02:33:09;1.40;;;1.30;;
12768;SDS011;6448;48.916;8.990;2022-08-03T02:34:14;1.60;;;1.30;;
12768;SDS011;6448;48.916;8.990;2022-08-03T02:35:20;2.00;;;1.40;;
12768;SDS011;6448;48.916;8.990;2022-08-03T02:36:24;1.50;;;1.40;;
12768;SDS011;6448;48.916;8.990;2022-08-03T02:38:52;1.50;;;1.40;;
12768;SDS011;6448;48.916;8.990;2022-08-03T02:39:57;1.90;;;1.42;;
12768;SDS011;6448;48.916;8.990;2022-08-03T02:41:02;1.40;;;1.27;;
12768;SDS011;6448;48.916;8.990;2022-08-03T02:42:07;1.30;;;1.20;;
12768;SDS011;6448;48.916;8.990;2022-08-03T02:43:11;1.50;;;1.40;;
12768;SDS011;6448;48.916;8.990;2022-08-03T02:44:19;1.80;;;1.30;;
12768;SDS011;6448;48.916;8.990;2022-08-03T02:45:24;1.50;;;1.40;;
12768;SDS011;6448;48.916;8.990;2022-08-03T02:46:29;1.30;;;1.20;;
12768;SDS011;6448;48.916;8.990;2022-08-03T02:47:36;1.30;;;1.20;;
12768;SDS011;6448;48.916;8.990;2022-08-03T02:48:40;2.10;;;1.40;;
12768;SDS011;6448;48.916;8.990;2022-08-03T02:49:42;1.50;;;1.40;;
12768;SDS011;6448;48.916;8.990;2022-08-03T02:50:48;1.40;;;1.30;;
12768;SDS011;6448;48.916;8.990;2022-08-03T02:51:54;1.50;;;1.40;;
12768;SDS011;6448;48.916;8.990;2022-08-03T02:52:59;1.70;;;1.30;;
12768;SDS011;6448;48.916;8.990;2022-08-03T02:54:02;2.17;;;1.40;;
12768;SDS011;6448;48.916;8.990;2022-08-03T02:55:05;1.50;;;1.40;;
12768;SDS011;6448;48.916;8.990;2022-08-03T02:56:09;1.30;;;1.20;;
12768;SDS011;6448;48.916;8.990;2022-08-03T02:57:12;1.40;;;1.30;;
12768;SDS011;6448;48.916;8.990;2022-08-03T02:58:19;1.60;;;1.50;;
12768;SDS011;6448;48.916;8.990;2022-08-03T02:59:25;1.40;;;1.30;;
12768;SDS011;6448;48.916;8.990;2022-08-03T03:00:32;1.40;;;1.30;;
12768;SDS011;6448;48.916;8.990;2022-08-03T03:01:44;1.58;;;1.40;;
12768;SDS011;6448;48.916;8.990;2022-08-03T03:02:48;1.50;;;1.40;;
12768;SDS011;6448;48.916;8.990;2022-08-03T03:03:52;1.50;;;1.40;;
12768;SDS011;6448;48.916;8.990;2022-08-03T03:04:55;1.50;;;1.40;;
12768;SDS011;6448;48.916;8.990;2022-08-03T03:05:57;1.67;;;1.40;;
12768;SDS011;6448;48.916;8.990;2022-08-03T03:06:59;1.50;;;1.40;;
12768;SDS011;6448;48.916;8.990;2022-08-03T03:08:02;1.50;;;1.40;;
12768;SDS011;6448;48.916;8.990;2022-08-03T03:09:03;1.60;;;1.30;;
12768;SDS011;6448;48.916;8.990;2022-08-03T03:10:06;1.50;;;1.40;;
12768;SDS011;6448;48.916;8.990;2022-08-03T03:11:07;1.50;;;1.40;;
12768;SDS011;6448;48.916;8.990;2022-08-03T03:12:11;1.33;;;1.25;;
12768;SDS011;6448;48.916;8.990;2022-08-03T03:13:13;1.30;;;1.20;;
12768;SDS011;6448;48.916;8.990;2022-08-03T03:14:16;1.40;;;1.30;;
12768;SDS011;6448;48.916;8.990;2022-08-03T03:15:17;2.20;;;1.47;;
12768;SDS011;6448;48.916;8.990;2022-08-03T03:16:19;1.40;;;1.30;;
12768;SDS011;6448;48.916;8.990;2022-08-03T03:17:21;1.50;;;1.40;;
12768;SDS011;6448;48.916;8.990;2022-08-03T03:18:26;1.50;;;1.40;;
12768;SDS011;6448;48.916;8.990;2022-08-03T03:19:27;1.60;;;1.50;;
12768;SDS011;6448;48.916;8.990;2022-08-03T03:20:30;1.40;;;1.30;;
12768;SDS011;6448;48.916;8.990;2022-08-03T03:21:34;1.50;;;1.40;;
12768;SDS011;6448;48.916;8.990;2022-08-03T03:22:37;1.55;;;1.45;;
12768;SDS011;6448;48.916;8.990;2022-08-03T03:23:40;1.40;;;1.30;;
12768;SDS011;6448;48.916;8.990;2022-08-03T03:24:43;1.60;;;1.50;;
12768;SDS011;6448;48.916;8.990;2022-08-03T03:25:46;1.50;;;1.40;;
12768;SDS011;6448;48.916;8.990;2022-08-03T03:26:48;1.50;;;1.40;;
12768;SDS011;6448;48.916;8.990;2022-08-03T03:27:50;1.90;;;1.40;;
12768;SDS011;6448;48.916;8.990;2022-08-03T03:28:52;1.45;;;1.35;;
12768;SDS011;6448;48.916;8.990;2022-08-03T03:29:53;1.60;;;1.50;;
12768;SDS011;6448;48.916;8.990;2022-08-03T03:30:55;1.73;;;1.58;;
12768;SDS011;6448;48.916;8.990;2022-08-03T03:31:57;1.70;;;1.60;;
12768;SDS011;6448;48.916;8.990;2022-08-03T03:32:58;1.40;;;1.30;;
12768;SDS011;6448;48.916;8.990;2022-08-03T03:34:01;1.30;;;1.20;;
12768;SDS011;6448;48.916;8.990;2022-08-03T03:35:03;1.52;;;1.42;;
12768;SDS011;6448;48.916;8.990;2022-08-03T03:36:05;2.78;;;1.50;;
12768;SDS011;6448;48.916;8.990;2022-08-03T03:37:07;1.50;;;1.40;;
12768;SDS011;6448;48.916;8.990;2022-08-03T03:38:09;1.85;;;1.33;;
12768;SDS011;6448;48.916;8.990;2022-08-03T03:39:10;1.50;;;1.40;;
12768;SDS011;6448;48.916;8.990;2022-08-03T03:40:12;1.52;;;1.42;;
12768;SDS011;6448;48.916;8.990;2022-08-03T03:41:14;1.55;;;1.45;;
12768;SDS011;6448;48.916;8.990;2022-08-03T03:42:16;1.60;;;1.50;;
12768;SDS011;6448;48.916;8.990;2022-08-03T03:43:17;1.50;;;1.40;;
12768;SDS011;6448;48.916;8.990;2022-08-03T03:44:18;1.50;;;1.40;;
12768;SDS011;6448;48.916;8.990;2022-08-03T03:45:19;1.90;;;1.50;;
12768;SDS011;6448;48.916;8.990;2022-08-03T03:46:22;1.50;;;1.40;;
12768;SDS011;6448;48.916;8.990;2022-08-03T03:47:23;1.58;;;1.48;;
12768;SDS011;6448;48.916;8.990;2022-08-03T03:48:24;1.50;;;1.40;;
12768;SDS011;6448;48.916;8.990;2022-08-03T03:49:27;1.52;;;1.42;;
12768;SDS011;6448;48.916;8.990;2022-08-03T03:50:29;1.65;;;1.50;;
12768;SDS011;6448;48.916;8.990;2022-08-03T03:51:31;1.70;;;1.50;;
12768;SDS011;6448;48.916;8.990;2022-08-03T03:52:33;1.55;;;1.45;;
12768;SDS011;6448;48.916;8.990;2022-08-03T03:53:34;1.60;;;1.50;;
12768;SDS011;6448;48.916;8.990;2022-08-03T03:54:39;1.70;;;1.60;;
12768;SDS011;6448;48.916;8.990;2022-08-03T03:55:40;1.70;;;1.60;;
12768;SDS011;6448;48.916;8.990;2022-08-03T03:56:42;1.58;;;1.48;;
12768;SDS011;6448;48.916;8.990;2022-08-03T03:57:43;1.67;;;1.58;;
12768;SDS011;6448;48.916;8.990;2022-08-03T03:58:45;1.60;;;1.50;;
12768;SDS011;6448;48.916;8.990;2022-08-03T03:59:45;1.55;;;1.45;;
12768;SDS011;6448;48.916;8.990;2022-08-03T04:00:48;1.52;;;1.42;;
12768;SDS011;6448;48.916;8.990;2022-08-03T04:01:49;1.70;;;1.60;;
12768;SDS011;6448;48.916;8.990;2022-08-03T04:02:51;1.55;;;1.45;;
12768;SDS011;6448;48.916;8.990;2022-08-03T04:03:52;1.60;;;1.50;;
12768;SDS011;6448;48.916;8.990;2022-08-03T04:04:55;1.50;;;1.40;;
12768;SDS011;6448;48.916;8.990;2022-08-03T04:06:14;1.50;;;1.40;;
12768;SDS011;6448;48.916;8.990;2022-08-03T04:07:35;1.70;;;1.60;;
12768;SDS011;6448;48.916;8.990;2022-08-03T04:09:03;1.60;;;1.50;;
12768;SDS011;6448;48.916;8.990;2022-08-03T04:10:24;1.63;;;1.52;;
12768;SDS011;6448;48.916;8.990;2022-08-03T04:12:03;1.48;;;1.38;;
12768;SDS011;6448;48.916;8.990;2022-08-03T04:13:07;1.50;;;1.40;;
12768;SDS011;6448;48.916;8.990;2022-08-03T04:14:12;1.40;;;1.30;;
12768;SDS011;6448;48.916;8.990;2022-08-03T04:15:17;1.73;;;1.40;;
12768;SDS011;6448;48.916;8.990;2022-08-03T04:16:22;1.60;;;1.50;;
12768;SDS011;6448;48.916;8.990;2022-08-03T04:17:26;1.50;;;1.40;;
12768;SDS011;6448;48.916;8.990;2022-08-03T04:18:31;1.60;;;1.50;;
12768;SDS011;6448;48.916;8.990;2022-08-03T04:19:34;1.70;;;1.60;;
12768;SDS011;6448;48.916;8.990;2022-08-03T04:20:39;1.58;;;1.48;;
12768;SDS011;6448;48.916;8.990;2022-08-03T04:21:45;1.75;;;1.60;;
12768;SDS011;6448;48.916;8.990;2022-08-03T04:22:50;1.50;;;1.40;;
12768;SDS011;6448;48.916;8.990;2022-08-03T04:23:54;1.60;;;1.50;;
12768;SDS011;6448;48.916;8.990;2022-08-03T04:25:00;1.60;;;1.50;;
12768;SDS011;6448;48.916;8.990;2022-08-03T04:26:06;2.03;;;1.67;;
12768;SDS011;6448;48.916;8.990;2022-08-03T04:27:10;1.60;;;1.50;;
12768;SDS011;6448;48.916;8.990;2022-08-03T04:28:13;1.70;;;1.60;;
12768;SDS011;6448;48.916;8.990;2022-08-03T04:29:16;1.67;;;1.58;;
12768;SDS011;6448;48.916;8.990;2022-08-03T04:30:20;1.70;;;1.60;;
12768;SDS011;6448;48.916;8.990;2022-08-03T04:31:23;1.60;;;1.50;;
12768;SDS011;6448;48.916;8.990;2022-08-03T04:32:25;1.67;;;1.58;;
12768;SDS011;6448;48.916;8.990;2022-08-03T04:33:28;1.60;;;1.50;;
12768;SDS011;6448;48.916;8.990;2022-08-03T04:34:32;1.80;;;1.70;;
12768;SDS011;6448;48.916;8.990;2022-08-03T04:35:34;1.80;;;1.70;;
12768;SDS011;6448;48.916;8.990;2022-08-03T04:36:39;1.70;;;1.60;;
12768;SDS011;6448;48.916;8.990;2022-08-03T04:37:48;1.50;;;1.40;;
12768;SDS011;6448;48.916;8.990;2022-08-03T04:38:53;1.65;;;1.55;;
12768;SDS011;6448;48.916;8.990;2022-08-03T04:40:00;1.63;;;1.52;;
12768;SDS011;6448;48.916;8.990;2022-08-03T04:41:02;2.10;;;1.80;;
12768;SDS011;6448;48.916;8.990;2022-08-03T04:42:05;1.80;;;1.70;;
12768;SDS011;6448;48.916;8.990;2022-08-03T04:43:08;1.80;;;1.70;;
12768;SDS011;6448;48.916;8.990;2022-08-03T04:44:11;1.75;;;1.65;;
12768;SDS011;6448;48.916;8.990;2022-08-03T04:45:14;1.70;;;1.60;;
12768;SDS011;6448;48.916;8.990;2022-08-03T04:46:17;1.88;;;1.73;;
12768;SDS011;6448;48.916;8.990;2022-08-03T04:47:21;1.70;;;1.60;;
12768;SDS011;6448;48.916;8.990;2022-08-03T04:48:23;1.60;;;1.50;;
12768;SDS011;6448;48.916;8.990;2022-08-03T04:49:24;1.73;;;1.63;;
12768;SDS011;6448;48.916;8.990;2022-08-03T04:50:27;1.70;;;1.60;;
12768;SDS011;6448;48.916;8.990;2022-08-03T04:51:38;1.70;;;1.60;;
12768;SDS011;6448;48.916;8.990;2022-08-03T04:52:41;2.40;;;1.60;;
12768;SDS011;6448;48.916;8.990;2022-08-03T04:53:42;1.70;;;1.60;;
12768;SDS011;6448;48.916;8.990;2022-08-03T04:54:44;1.70;;;1.60;;
12768;SDS011;6448;48.916;8.990;2022-08-03T04:55:45;1.80;;;1.70;;
12768;SDS011;6448;48.916;8.990;2022-08-03T04:56:50;2.20;;;1.90;;
12768;SDS011;6448;48.916;8.990;2022-08-03T04:57:50;1.77;;;1.67;;
12768;SDS011;6448;48.916;8.990;2022-08-03T04:58:52;1.63;;;1.52;;
12768;SDS011;6448;48.916;8.990;2022-08-03T04:59:53;1.70;;;1.60;;
12768;SDS011;6448;48.916;8.990;2022-08-03T05:00:55;1.90;;;1.70;;
12768;SDS011;6448;48.916;8.990;2022-08-03T05:01:56;1.60;;;1.50;;
12768;SDS011;6448;48.916;8.990;2022-08-03T05:02:58;1.70;;;1.60;;
12768;SDS011;6448;48.916;8.990;2022-08-03T05:03:58;1.60;;;1.50;;
12768;SDS011;6448;48.916;8.990;2022-08-03T05:05:00;1.67;;;1.58;;
12768;SDS011;6448;48.916;8.990;2022-08-03T05:06:01;1.60;;;1.50;;
12768;SDS011;6448;48.916;8.990;2022-08-03T05:07:04;1.70;;;1.60;;
12768;SDS011;6448;48.916;8.990;2022-08-03T05:08:05;1.70;;;1.60;;
12768;SDS011;6448;48.916;8.990;2022-08-03T05:09:07;1.70;;;1.60;;
12768;SDS011;6448;48.916;8.990;2022-08-03T05:10:08;1.90;;;1.70;;
12768;SDS011;6448;48.916;8.990;2022-08-03T05:11:11;1.80;;;1.70;;
12768;SDS011;6448;48.916;8.990;2022-08-03T05:12:12;1.85;;;1.75;;
12768;SDS011;6448;48.916;8.990;2022-08-03T05:13:14;1.60;;;1.50;;
12768;SDS011;6448;48.916;8.990;2022-08-03T05:14:15;1.63;;;1.52;;
12768;SDS011;6448;48.916;8.990;2022-08-03T05:15:16;1.60;;;1.50;;
12768;SDS011;6448;48.916;8.990;2022-08-03T05:16:17;1.80;;;1.70;;
12768;SDS011;6448;48.916;8.990;2022-08-03T05:17:19;1.70;;;1.60;;
12768;SDS011;6448;48.916;8.990;2022-08-03T05:18:20;1.90;;;1.80;;
12768;SDS011;6448;48.916;8.990;2022-08-03T05:19:22;2.17;;;2.00;;
12768;SDS011;6448;48.916;8.990;2022-08-03T05:20:23;1.97;;;1.80;;
12768;SDS011;6448;48.916;8.990;2022-08-03T05:21:24;1.92;;;1.83;;
12768;SDS011;6448;48.916;8.990;2022-08-03T05:22:26;2.00;;;1.80;;
12768;SDS011;6448;48.916;8.990;2022-08-03T05:23:28;1.90;;;1.80;;
12768;SDS011;6448;48.916;8.990;2022-08-03T05:24:29;1.80;;;1.70;;
12768;SDS011;6448;48.916;8.990;2022-08-03T05:25:31;2.00;;;1.80;;
12768;SDS011;6448;48.916;8.990;2022-08-03T05:26:31;1.80;;;1.70;;
12768;SDS011;6448;48.916;8.990;2022-08-03T05:27:33;1.90;;;1.80;;
12768;SDS011;6448;48.916;8.990;2022-08-03T05:28:34;2.30;;;1.90;;
12768;SDS011;6448;48.916;8.990;2022-08-03T05:29:35;1.80;;;1.70;;
12768;SDS011;6448;48.916;8.990;2022-08-03T05:30:36;1.90;;;1.80;;
12768;SDS011;6448;48.916;8.990;2022-08-03T05:31:38;3.03;;;1.90;;
12768;SDS011;6448;48.916;8.990;2022-08-03T05:32:39;1.90;;;1.80;;
12768;SDS011;6448;48.916;8.990;2022-08-03T05:33:41;2.10;;;1.90;;
12768;SDS011;6448;48.916;8.990;2022-08-03T05:34:44;2.50;;;1.83;;
12768;SDS011;6448;48.916;8.990;2022-08-03T05:35:46;1.90;;;1.80;;
12768;SDS011;6448;48.916;8.990;2022-08-03T05:36:48;2.10;;;2.00;;
12768;SDS011;6448;48.916;8.990;2022-08-03T05:37:50;2.20;;;2.10;;
12768;SDS011;6448;48.916;8.990;2022-08-03T05:38:52;2.40;;;2.20;;
12768;SDS011;6448;48.916;8.990;2022-08-03T05:39:52;2.03;;;1.83;;
12768;SDS011;6448;48.916;8.990;2022-08-03T05:40:54;2.28;;;2.08;;
12768;SDS011;6448;48.916;8.990;2022-08-03T05:41:56;1.92;;;1.83;;
12768;SDS011;6448;48.916;8.990;2022-08-03T05:42:58;2.00;;;1.90;;
12768;SDS011;6448;48.916;8.990;2022-08-03T05:43:59;2.13;;;2.00;;
12768;SDS011;6448;48.916;8.990;2022-08-03T05:45:02;2.42;;;2.10;;
12768;SDS011;6448;48.916;8.990;2022-08-03T05:46:12;2.00;;;1.90;;
12768;SDS011;6448;48.916;8.990;2022-08-03T05:47:13;2.20;;;2.00;;
12768;SDS011;6448;48.916;8.990;2022-08-03T05:48:14;2.47;;;1.95;;
12768;SDS011;6448;48.916;8.990;2022-08-03T05:49:16;2.28;;;2.00;;
12768;SDS011;6448;48.916;8.990;2022-08-03T05:50:18;2.70;;;2.20;;
12768;SDS011;6448;48.916;8.990;2022-08-03T05:51:19;2.05;;;1.95;;
12768;SDS011;6448;48.916;8.990;2022-08-03T05:52:21;2.88;;;2.30;;
12768;SDS011;6448;48.916;8.990;2022-08-03T05:53:23;2.05;;;1.95;;
12768;SDS011;6448;48.916;8.990;2022-08-03T05:54:25;2.40;;;2.20;;
12768;SDS011;6448;48.916;8.990;2022-08-03T05:55:26;2.37;;;2.20;;
12768;SDS011;6448;48.916;8.990;2022-08-03T05:56:28;2.30;;;2.10;;
12768;SDS011;6448;48.916;8.990;2022-08-03T05:57:29;2.33;;;2.20;;
12768;SDS011;6448;48.916;8.990;2022-08-03T05:58:31;2.30;;;2.10;;
12768;SDS011;6448;48.916;8.990;2022-08-03T05:59:31;4.30;;;2.35;;
12768;SDS011;6448;48.916;8.990;2022-08-03T06:00:33;2.30;;;2.10;;
12768;SDS011;6448;48.916;8.990;2022-08-03T06:01:34;2.40;;;2.20;;
12768;SDS011;6448;48.916;8.990;2022-08-03T06:02:36;2.50;;;2.30;;
12768;SDS011;6448;48.916;8.990;2022-08-03T06:03:37;2.20;;;2.10;;
12768;SDS011;6448;48.916;8.990;2022-08-03T06:04:39;2.40;;;2.20;;
12768;SDS011;6448;48.916;8.990;2022-08-03T06:05:52;2.20;;;2.00;;
12768;SDS011;6448;48.916;8.990;2022-08-03T06:07:05;2.10;;;2.00;;
12768;SDS011;6448;48.916;8.990;2022-08-03T06:08:16;2.50;;;2.30;;
12768;SDS011;6448;48.916;8.990;2022-08-03T06:09:25;2.40;;;2.20;;
12768;SDS011;6448;48.916;8.990;2022-08-03T06:10:28;2.42;;;2.22;;
12768;SDS011;6448;48.916;8.990;2022-08-03T06:11:32;2.20;;;2.00;;
12768;SDS011;6448;48.916;8.990;2022-08-03T06:12:41;2.10;;;2.00;;
12768;SDS011;6448;48.916;8.990;2022-08-03T06:13:52;2.53;;;2.22;;
12768;SDS011;6448;48.916;8.990;2022-08-03T06:14:58;2.50;;;2.30;;
12768;SDS011;6448;48.916;8.990;2022-08-03T06:16:04;2.40;;;2.20;;
12768;SDS011;6448;48.916;8.990;2022-08-03T06:17:09;2.50;;;2.30;;
12768;SDS011;6448;48.916;8.990;2022-08-03T06:18:16;2.63;;;2.42;;
12768;SDS011;6448;48.916;8.990;2022-08-03T06:19:22;3.17;;;2.38;;
12768;SDS011;6448;48.916;8.990;2022-08-03T06:20:23;2.70;;;2.50;;
12768;SDS011;6448;48.916;8.990;2022-08-03T06:21:28;2.70;;;2.50;;
12768;SDS011;6448;48.916;8.990;2022-08-03T06:22:29;2.50;;;2.30;;
12768;SDS011;6448;48.916;8.990;2022-08-03T06:23:38;2.50;;;2.30;;
12768;SDS011;6448;48.916;8.990;2022-08-03T06:24:44;2.80;;;2.30;;
12768;SDS011;6448;48.916;8.990;2022-08-03T06:25:50;2.38;;;2.17;;
12768;SDS011;6448;48.916;8.990;2022-08-03T06:26:56;3.13;;;2.22;;
12768;SDS011;6448;48.916;8.990;2022-08-03T06:27:59;2.20;;;2.10;;
12768;SDS011;6448;48.916;8.990;2022-08-03T06:29:03;2.50;;;2.30;;
12768;SDS011;6448;48.916;8.990;2022-08-03T06:30:07;2.45;;;2.25;;
12768;SDS011;6448;48.916;8.990;2022-08-03T06:31:18;2.92;;;2.30;;
12768;SDS011;6448;48.916;8.990;2022-08-03T06:32:28;3.28;;;2.20;;
12768;SDS011;6448;48.916;8.990;2022-08-03T06:33:33;2.93;;;2.30;;
12768;SDS011;6448;48.916;8.990;2022-08-03T06:34:36;2.67;;;2.30;;
12768;SDS011;6448;48.916;8.990;2022-08-03T06:35:44;2.65;;;2.10;;